Terminal Aerodrome Forecast
Issued by NWS

Current Version | Previous Version | Text Only | Print | Product List | Glossary On
Versions: 1 2 3 4 5 6 7 8 9 10 11 12 13 14 15 16 17 18 19 20 21 22 23 24 25
000
FTUS46 KSEW 230500
TAFSEA
TAF
KSEA 230538Z 2306/2412 VRB03KT P6SM SCT070 BKN200
     FM230900 VRB03KT P6SM BKN100 BKN200
     FM231400 VRB03KT P6SM -SHRA SCT040 OVC070
     FM231700 21010KT P6SM -SHRA BKN015 OVC030
     FM240300 21014KT P6SM -SHRA SCT015 BKN025 OVC040=

USA.gov is the U.S. government's official web portal to all federal, state and local government web resources and services.